Time;durP1;ratioP1;P1;durP2;ratioP2;P2;SDS_P1;SDS_P2;PMS_P1;PMS_P2;Temp;Humidity;BMP_temperature;BMP_pressure;BME280_temperature;BME280_humidity;BME280_pressure;Samples;Min_cycle;Max_cycle;Signal;HPM_P1;HPM_P2
2024/01/30 00:02:25;;;;;;;89.75;31.77;;;-1.10;99.90;;;;;;6210130;23;20020;-77
2024/01/30 00:04:54;;;;;;;93.82;30.52;;;-1.00;99.90;;;;;;6210025;23;20084;-77
2024/01/30 00:07:23;;;;;;;84.15;29.80;;;-1.00;99.90;;;;;;6211182;23;20009;-78
2024/01/30 00:09:52;;;;;;;90.90;33.90;;;-1.00;99.90;;;;;;6211161;23;20052;-78
2024/01/30 00:12:23;;;;;;;90.45;34.17;;;-0.30;99.90;;;;;;6211965;23;20020;-78
2024/01/30 00:14:52;;;;;;;95.55;36.40;;;-0.90;99.90;;;;;;6212057;23;20032;-77
2024/01/30 00:17:25;;;;;;;101.28;35.25;;;-1.00;99.90;;;;;;6210535;23;20001;-77
2024/01/30 00:19:54;;;;;;;92.80;33.05;;;0.50;99.90;;;;;;6211094;23;20013;-77
2024/01/30 00:22:23;;;;;;;87.70;30.30;;;-1.70;99.90;;;;;;6211162;23;20013;-79
2024/01/30 00:24:52;;;;;;;90.15;33.97;;;0.50;99.90;;;;;;6212273;23;20005;-78
2024/01/30 00:27:22;;;;;;;74.30;28.65;;;-1.20;99.90;;;;;;6211573;23;19998;-76
2024/01/30 00:29:52;;;;;;;75.35;28.60;;;-1.30;99.90;;;;;;6211852;23;20070;-79
2024/01/30 00:32:22;;;;;;;78.80;28.17;;;-0.30;99.90;;;;;;6211038;23;20005;-77
2024/01/30 00:34:51;;;;;;;72.47;27.67;;;-1.10;99.90;;;;;;6211297;23;19997;-79
2024/01/30 00:37:23;;;;;;;65.32;26.08;;;-1.20;99.90;;;;;;6212205;23;20001;-77
2024/01/30 00:39:52;;;;;;;68.13;25.23;;;-1.30;99.90;;;;;;6211291;23;19997;-76
2024/01/30 00:42:23;;;;;;;74.70;25.98;;;-0.90;99.90;;;;;;6211009;23;20016;-77
2024/01/30 00:44:55;;;;;;;68.88;27.33;;;-1.20;99.90;;;;;;6211191;23;20025;-77
2024/01/30 00:47:27;;;;;;;69.38;25.15;;;-1.10;99.90;;;;;;6211224;23;20013;-78
2024/01/30 00:49:56;;;;;;;73.32;24.65;;;-1.20;99.90;;;;;;6211113;23;20080;-76
2024/01/30 00:52:25;;;;;;;71.63;24.83;;;-1.30;99.90;;;;;;6211008;23;20012;-77
2024/01/30 00:54:55;;;;;;;70.13;25.17;;;-0.90;99.90;;;;;;6211527;23;20001;-77
2024/01/30 00:57:26;;;;;;;75.30;25.20;;;-0.40;99.90;;;;;;6211833;23;20031;-78
2024/01/30 00:59:55;;;;;;;65.75;24.55;;;-1.40;99.90;;;;;;6212793;23;20197;-77
2024/01/30 01:02:24;;;;;;;71.22;25.13;;;-1.20;99.90;;;;;;6201741;23;20116;-76
2024/01/30 01:04:52;;;;;;;64.80;24.70;;;-1.40;99.90;;;;;;6183495;23;20525;-76
2024/01/30 01:07:21;;;;;;;70.93;25.05;;;-1.30;99.90;;;;;;6184562;23;20048;-76
2024/01/30 01:09:49;;;;;;;66.80;23.80;;;-1.30;99.90;;;;;;6184415;23;20021;-76
2024/01/30 01:12:17;;;;;;;58.05;24.50;;;-1.40;99.90;;;;;;6184929;23;20079;-76
2024/01/30 01:14:47;;;;;;;59.83;24.52;;;-1.40;99.90;;;;;;6183959;23;20093;-76
2024/01/30 01:17:16;;;;;;;63.03;22.80;;;-1.40;99.90;;;;;;6185408;23;20128;-76
2024/01/30 01:19:44;;;;;;;63.38;24.75;;;-1.30;99.90;;;;;;6183194;23;20455;-76
2024/01/30 01:22:13;;;;;;;64.82;25.08;;;-1.50;99.90;;;;;;6184305;23;20028;-75
2024/01/30 01:24:41;;;;;;;66.65;23.65;;;-1.40;99.90;;;;;;6184685;23;20021;-75
2024/01/30 01:27:10;;;;;;;63.22;23.63;;;-1.40;99.90;;;;;;6186028;23;20013;-75
2024/01/30 01:29:39;;;;;;;67.38;25.60;;;-1.40;99.90;;;;;;6185416;23;20021;-76
2024/01/30 01:32:09;;;;;;;66.07;23.92;;;-1.50;99.90;;;;;;6183416;23;20021;-75
2024/01/30 01:34:37;;;;;;;77.60;27.30;;;-1.50;99.90;;;;;;6182928;23;20583;-76
2024/01/30 01:37:05;;;;;;;64.38;24.05;;;-1.40;99.90;;;;;;6183646;23;20363;-75
2024/01/30 01:39:34;;;;;;;68.93;25.58;;;-1.50;99.90;;;;;;6184237;23;20029;-75
2024/01/30 01:42:02;;;;;;;76.07;26.88;;;-1.60;99.90;;;;;;6183999;23;20021;-76
2024/01/30 01:44:31;;;;;;;59.55;22.25;;;-1.60;99.90;;;;;;6183692;23;20025;-76
2024/01/30 01:47:00;;;;;;;72.32;26.67;;;-1.60;99.90;;;;;;6183565;23;20028;-76
2024/01/30 01:49:30;;;;;;;67.13;24.13;;;-1.50;99.90;;;;;;6183620;23;20079;-75
2024/01/30 01:51:59;;;;;;;73.30;25.00;;;-1.60;99.90;;;;;;6184424;23;20124;-75
2024/01/30 01:54:30;;;;;;;67.90;24.02;;;-1.60;99.90;;;;;;6184851;23;20388;-76
2024/01/30 01:56:59;;;;;;;67.20;23.17;;;-1.50;99.90;;;;;;6183358;23;20017;-75
2024/01/30 01:59:27;;;;;;;58.50;23.48;;;-1.50;99.90;;;;;;6183444;23;20029;-76
2024/01/30 02:01:57;;;;;;;67.78;24.20;;;-1.50;99.90;;;;;;6183357;23;20025;-75
2024/01/30 02:04:25;;;;;;;74.40;26.42;;;-1.60;99.90;;;;;;6182964;23;20048;-76
2024/01/30 02:06:55;;;;;;;74.80;25.58;;;-1.60;99.90;;;;;;6182900;23;20072;-75
2024/01/30 02:09:24;;;;;;;86.97;28.00;;;-1.60;99.90;;;;;;6183601;23;20626;-75
2024/01/30 02:11:53;;;;;;;75.57;26.35;;;-1.70;99.90;;;;;;6182484;23;20024;-75
2024/01/30 02:14:21;;;;;;;72.38;24.88;;;-1.70;99.90;;;;;;6212646;23;20004;-76
2024/01/30 02:22:50;;;;;;;69.30;22.55;;;-1.70;99.90;;;;;;6192317;22;20032;-83
2024/01/30 02:25:18;;;;;;;61.92;23.77;;;-2.40;99.90;;;;;;6210391;23;20036;-80
2024/01/30 02:27:50;;;;;;;63.63;23.25;;;-1.30;99.90;;;;;;6216314;23;20039;-78
2024/01/30 02:30:19;;;;;;;57.55;22.20;;;-1.80;99.90;;;;;;6242820;23;19992;-78
2024/01/30 02:36:02;;;;;;;59.17;21.67;;;-1.80;99.90;;;;;;6194053;22;19930;-84
2024/01/30 02:38:32;;;;;;;63.03;21.10;;;-1.10;99.90;;;;;;6214372;23;20001;-80
2024/01/30 02:41:08;;;;;;;69.50;23.88;;;-1.70;99.90;;;;;;6214199;23;20024;-83
2024/01/30 02:43:37;;;;;;;59.72;21.48;;;-0.60;99.90;;;;;;6213439;23;20016;-81
2024/01/30 02:46:06;;;;;;;58.67;22.65;;;-1.60;99.90;;;;;;6212086;23;20023;-85
2024/01/30 02:48:39;;;;;;;68.95;23.10;;;-2.20;99.90;;;;;;6211550;23;20080;-85
2024/01/30 02:51:07;;;;;;;64.00;21.98;;;-1.70;99.90;;;;;;6211273;23;20016;-86
2024/01/30 02:53:37;;;;;;;60.03;23.55;;;-1.90;99.90;;;;;;6208510;23;20021;-87
2024/01/30 02:56:09;;;;;;;58.38;21.13;;;-1.20;99.90;;;;;;6232589;23;20017;-83
2024/01/30 02:58:38;;;;;;;60.97;21.20;;;-1.90;99.90;;;;;;6238199;23;20016;-84
2024/01/30 03:01:13;;;;;;;62.47;22.23;;;-0.40;99.90;;;;;;6210847;23;20024;-81
2024/01/30 03:03:43;;;;;;;55.63;20.73;;;-1.70;99.90;;;;;;6210908;23;20020;-82
2024/01/30 03:06:22;;;;;;;57.38;23.40;;;0.20;99.90;;;;;;6207829;23;20024;-82
2024/01/30 03:08:52;;;;;;;60.63;20.58;;;-0.80;99.90;;;;;;6212680;23;20012;-80
2024/01/30 03:11:24;;;;;;;62.58;21.83;;;-2.00;99.90;;;;;;6213954;23;20027;-80
2024/01/30 03:13:52;;;;;;;58.20;20.65;;;-1.50;99.90;;;;;;6239140;23;20056;-80
2024/01/30 03:16:24;;;;;;;58.72;22.45;;;-1.90;99.90;;;;;;6238758;23;20007;-76
2024/01/30 03:18:53;;;;;;;67.90;23.02;;;-2.10;99.90;;;;;;6211467;23;20017;-82
2024/01/30 03:21:22;;;;;;;72.38;23.98;;;-1.80;99.90;;;;;;6214159;23;20020;-84
2024/01/30 03:23:53;;;;;;;59.40;22.65;;;0.00;99.90;;;;;;6196793;23;20043;-77
2024/01/30 03:26:21;;;;;;;60.42;23.13;;;-1.90;99.90;;;;;;6189018;23;20055;-77
2024/01/30 03:28:50;;;;;;;69.78;22.08;;;-1.90;99.90;;;;;;6216539;23;20047;-77
2024/01/30 03:31:18;;;;;;;59.08;21.25;;;-1.90;99.90;;;;;;6215930;23;20044;-77
2024/01/30 03:33:47;;;;;;;70.38;22.88;;;-1.90;99.90;;;;;;6187448;23;20119;-77
2024/01/30 03:36:17;;;;;;;68.25;23.95;;;-2.00;99.90;;;;;;6188123;23;20358;-77
2024/01/30 03:38:45;;;;;;;67.97;23.20;;;-2.00;99.90;;;;;;6188763;23;20028;-77
2024/01/30 03:41:15;;;;;;;61.30;23.73;;;-2.00;99.90;;;;;;6215393;23;20071;-77
2024/01/30 03:43:43;;;;;;;69.38;24.08;;;-2.00;99.90;;;;;;6186441;23;20082;-77
2024/01/30 03:46:14;;;;;;;59.20;23.42;;;-2.00;99.90;;;;;;6187101;23;20016;-77
2024/01/30 03:48:42;;;;;;;68.07;22.92;;;-2.00;99.90;;;;;;6189388;23;20020;-77
2024/01/30 03:51:14;;;;;;;73.00;22.67;;;-2.00;99.90;;;;;;6215896;23;20017;-77
2024/01/30 03:53:43;;;;;;;62.53;22.55;;;-2.10;99.90;;;;;;6187205;23;20485;-77
2024/01/30 03:56:12;;;;;;;66.32;23.17;;;-2.10;99.90;;;;;;6186828;23;20021;-77
2024/01/30 03:58:42;;;;;;;71.18;26.75;;;-2.10;99.90;;;;;;6213430;23;20024;-76
2024/01/30 04:01:14;;;;;;;86.65;27.73;;;-2.00;99.90;;;;;;6187470;23;20033;-77
2024/01/30 04:03:44;;;;;;;81.60;27.27;;;-2.10;99.90;;;;;;6187520;23;20059;-77
2024/01/30 04:06:14;;;;;;;80.85;25.83;;;-2.10;99.90;;;;;;6187442;23;20016;-77
2024/01/30 04:08:43;;;;;;;79.80;25.65;;;-2.00;99.90;;;;;;6215791;23;20016;-77
2024/01/30 04:11:12;;;;;;;71.28;26.92;;;-1.90;99.90;;;;;;6152158;23;20025;-77
2024/01/30 04:13:43;;;;;;;77.82;23.70;;;-2.10;99.90;;;;;;6150955;23;20782;-77
2024/01/30 04:16:21;;;;;;;69.25;23.17;;;-2.10;99.90;;;;;;6151333;23;20510;-77
2024/01/30 04:18:50;;;;;;;56.28;20.63;;;-2.10;99.90;;;;;;6152668;23;20021;-77
2024/01/30 04:21:19;;;;;;;66.75;21.95;;;-2.10;99.90;;;;;;6151892;23;20060;-77
2024/01/30 04:23:48;;;;;;;60.75;21.92;;;-2.20;99.90;;;;;;6151022;23;20514;-79
2024/01/30 04:26:16;;;;;;;60.10;22.17;;;-2.10;99.90;;;;;;6150685;23;20041;-78
2024/01/30 04:28:47;;;;;;;57.45;21.70;;;-2.20;99.90;;;;;;6153248;23;20025;-78
2024/01/30 04:31:15;;;;;;;53.85;21.20;;;-2.20;99.90;;;;;;6151177;23;20025;-77
2024/01/30 04:33:44;;;;;;;62.38;21.08;;;-2.20;99.90;;;;;;6128197;23;20032;-75
2024/01/30 04:36:12;;;;;;;67.85;21.27;;;-2.20;99.90;;;;;;6128907;23;20032;-75
2024/01/30 04:38:41;;;;;;;62.83;22.20;;;-2.20;99.90;;;;;;6129052;23;20037;-75
2024/01/30 04:41:10;;;;;;;59.33;21.00;;;-2.20;99.90;;;;;;6128983;23;20025;-75
2024/01/30 04:43:38;;;;;;;69.03;24.10;;;-2.10;99.90;;;;;;6152888;23;20025;-76
2024/01/30 04:46:08;;;;;;;59.80;21.98;;;-2.10;99.90;;;;;;6153775;23;20682;-75
2024/01/30 04:48:36;;;;;;;59.13;21.92;;;-2.20;99.90;;;;;;6170252;23;20119;-75
2024/01/30 04:51:05;;;;;;;63.17;22.20;;;-2.20;99.90;;;;;;6188897;23;20061;-75
2024/01/30 04:53:34;;;;;;;54.60;20.88;;;-2.20;99.90;;;;;;6189746;23;20107;-75
2024/01/30 04:56:02;;;;;;;73.47;24.70;;;-2.20;99.90;;;;;;6215583;23;20023;-75
2024/01/30 04:58:30;;;;;;;71.93;23.70;;;-2.30;99.90;;;;;;6189806;23;20017;-75
2024/01/30 05:00:59;;;;;;;77.78;25.45;;;-2.30;99.90;;;;;;6214735;23;20021;-75
2024/01/30 05:03:29;;;;;;;77.95;28.08;;;-2.30;99.90;;;;;;6190283;23;20056;-75
2024/01/30 05:05:57;;;;;;;77.05;27.02;;;-2.30;99.90;;;;;;6216385;23;20108;-76
2024/01/30 05:08:26;;;;;;;78.90;25.35;;;-2.20;99.90;;;;;;6189827;23;20020;-77
2024/01/30 05:10:54;;;;;;;99.68;27.80;;;-2.20;99.90;;;;;;6189438;23;20473;-76
2024/01/30 05:13:23;;;;;;;96.75;29.90;;;-2.30;99.90;;;;;;6216946;23;20027;-75
2024/01/30 05:15:51;;;;;;;96.13;27.48;;;-2.30;99.90;;;;;;6189008;23;20047;-75
2024/01/30 05:18:20;;;;;;;90.00;27.85;;;-2.30;99.90;;;;;;6189603;23;20044;-75
2024/01/30 05:20:50;;;;;;;91.25;30.33;;;-2.30;99.90;;;;;;6188369;23;20425;-78
2024/01/30 05:23:19;;;;;;;89.13;29.45;;;-2.30;99.90;;;;;;6216330;23;20307;-76
2024/01/30 05:25:47;;;;;;;89.10;27.65;;;-1.20;99.90;;;;;;6214799;23;20028;-75
2024/01/30 05:28:16;;;;;;;84.45;28.10;;;-2.40;99.90;;;;;;6215771;23;20465;-75
2024/01/30 05:30:44;;;;;;;82.45;27.17;;;-2.40;99.90;;;;;;6215758;23;20054;-75
2024/01/30 05:33:13;;;;;;;95.35;30.33;;;-2.40;99.90;;;;;;6188789;23;20024;-77
2024/01/30 05:35:41;;;;;;;88.43;30.15;;;-2.40;99.90;;;;;;6188470;23;20027;-76
2024/01/30 05:38:13;;;;;;;79.10;29.90;;;-2.40;99.90;;;;;;6189681;23;20055;-77
2024/01/30 05:40:42;;;;;;;59.07;23.10;;;-2.30;99.90;;;;;;6216446;23;20442;-76
2024/01/30 05:43:10;;;;;;;87.75;28.08;;;-2.40;99.90;;;;;;6189801;23;20454;-88
2024/01/30 05:45:39;;;;;;;65.55;26.05;;;-2.40;99.90;;;;;;6192575;23;20072;-91
2024/01/30 05:48:10;;;;;;;62.92;24.25;;;-2.50;99.90;;;;;;6194088;23;20021;-90
2024/01/30 05:50:39;;;;;;;71.72;24.48;;;-1.30;99.90;;;;;;6194351;23;20056;-85
2024/01/30 05:53:08;;;;;;;62.08;22.52;;;-2.20;99.90;;;;;;6193625;23;20400;-87
2024/01/30 05:55:38;;;;;;;61.38;22.88;;;-1.20;99.90;;;;;;6193775;23;20021;-89
2024/01/30 05:58:07;;;;;;;66.68;23.75;;;-2.20;99.90;;;;;;6194610;23;20032;-90
2024/01/30 06:00:36;;;;;;;81.82;23.75;;;-2.50;99.90;;;;;;6192207;23;20016;-89
2024/01/30 06:03:05;;;;;;;67.90;23.27;;;-0.80;99.90;;;;;;6219499;23;20023;-88
2024/01/30 06:05:34;;;;;;;71.95;23.13;;;-2.60;99.90;;;;;;6190231;23;20438;-85
2024/01/30 06:08:03;;;;;;;63.58;23.42;;;-2.60;99.90;;;;;;6217409;23;20015;-89
2024/01/30 06:10:33;;;;;;;66.45;23.48;;;-2.60;99.90;;;;;;6190686;23;20016;-90
2024/01/30 06:13:03;;;;;;;65.10;25.50;;;-2.10;99.90;;;;;;6217299;23;20021;-87
2024/01/30 06:15:32;;;;;;;65.38;24.60;;;-2.40;99.90;;;;;;6217690;23;20029;-86
2024/01/30 06:18:01;;;;;;;69.30;24.05;;;-2.40;99.90;;;;;;6191307;23;20020;-90
2024/01/30 06:20:30;;;;;;;74.40;26.23;;;-2.50;99.90;;;;;;6217441;23;20082;-90
2024/01/30 06:22:59;;;;;;;74.03;25.92;;;-1.20;99.90;;;;;;6188052;23;20071;-84
2024/01/30 06:25:28;;;;;;;77.47;27.70;;;-2.70;99.90;;;;;;6216592;23;20017;-86
2024/01/30 06:27:57;;;;;;;77.00;26.50;;;-2.40;99.90;;;;;;6189224;23;20071;-88
2024/01/30 06:30:28;;;;;;;74.15;28.33;;;-2.30;99.90;;;;;;6187259;23;20020;-86
2024/01/30 06:32:57;;;;;;;83.13;28.50;;;-1.40;99.90;;;;;;6218107;23;20407;-90
2024/01/30 06:35:28;;;;;;;92.65;29.08;;;-2.20;99.90;;;;;;6218541;23;20107;-86
2024/01/30 06:37:57;;;;;;;88.82;28.65;;;-2.60;99.90;;;;;;6192558;23;20021;-87
2024/01/30 06:40:27;;;;;;;72.05;28.38;;;-2.50;99.90;;;;;;6191593;23;20051;-86
2024/01/30 06:42:56;;;;;;;72.43;27.13;;;-1.20;99.90;;;;;;6191576;23;20021;-88
2024/01/30 06:45:25;;;;;;;63.72;25.75;;;-1.50;99.90;;;;;;6218913;23;20342;-86
2024/01/30 06:47:55;;;;;;;66.88;24.58;;;-2.40;99.90;;;;;;6218820;23;20009;-81
2024/01/30 06:50:24;;;;;;;61.25;25.35;;;-2.40;99.90;;;;;;6192824;23;20074;-85
2024/01/30 06:52:53;;;;;;;71.55;26.42;;;-1.80;99.90;;;;;;6218551;23;20017;-91
2024/01/30 06:55:22;;;;;;;77.68;27.42;;;-2.30;99.90;;;;;;6190310;23;20024;-77
2024/01/30 06:57:50;;;;;;;78.35;28.73;;;-2.30;99.90;;;;;;6189362;23;20032;-78
2024/01/30 07:00:20;;;;;;;72.88;26.15;;;-2.20;99.90;;;;;;6215788;23;20031;-79
2024/01/30 07:02:48;;;;;;;95.68;29.65;;;-2.10;99.90;;;;;;6188675;23;20024;-81
2024/01/30 07:05:18;;;;;;;80.20;29.17;;;-2.20;99.90;;;;;;6216175;23;20458;-79
2024/01/30 07:07:52;;;;;;;81.13;32.38;;;-2.10;99.90;;;;;;6216490;23;20055;-83
2024/01/30 07:10:22;;;;;;;119.15;37.42;;;-2.00;99.90;;;;;;6190194;23;20038;-77
2024/01/30 07:12:50;;;;;;;141.50;39.40;;;-1.90;99.90;;;;;;6190699;23;20028;-80
2024/01/30 07:15:20;;;;;;;157.82;43.60;;;-2.00;99.90;;;;;;6190563;23;20020;-81
2024/01/30 07:17:48;;;;;;;140.30;41.17;;;-1.90;99.90;;;;;;6189896;23;20104;-78
2024/01/30 07:20:20;;;;;;;123.28;38.30;;;-1.80;99.90;;;;;;6189584;23;20036;-76
2024/01/30 07:22:49;;;;;;;124.97;38.00;;;-1.70;99.90;;;;;;6190573;23;20024;-76
2024/01/30 07:25:17;;;;;;;139.77;41.00;;;-1.70;99.90;;;;;;6190041;23;20055;-78
2024/01/30 07:27:46;;;;;;;128.35;44.13;;;-1.60;99.90;;;;;;6216089;23;20013;-77
2024/01/30 07:30:17;;;;;;;137.90;43.05;;;-1.60;99.90;;;;;;6215860;23;20051;-78
2024/01/30 07:32:45;;;;;;;113.05;39.20;;;-1.40;99.90;;;;;;6189342;23;20410;-78
2024/01/30 07:35:14;;;;;;;109.20;36.58;;;-1.40;99.90;;;;;;6188594;23;20031;-77
2024/01/30 07:37:44;;;;;;;98.60;35.83;;;-1.30;99.90;;;;;;6188384;23;20024;-77
2024/01/30 07:40:12;;;;;;;91.72;32.08;;;-1.20;99.90;;;;;;6189010;23;20021;-77
2024/01/30 07:42:41;;;;;;;81.85;31.52;;;-1.20;99.90;;;;;;6189014;23;20032;-77
2024/01/30 07:45:10;;;;;;;81.05;31.35;;;-1.10;99.90;;;;;;6215095;23;20016;-77
2024/01/30 07:47:38;;;;;;;75.18;29.58;;;-1.10;99.90;;;;;;6188913;23;20024;-77
2024/01/30 07:50:09;;;;;;;69.13;27.65;;;-1.00;99.90;;;;;;6188463;23;20024;-78
2024/01/30 07:52:39;;;;;;;63.25;27.38;;;-0.90;99.90;;;;;;6193609;23;20031;-78
2024/01/30 07:55:09;;;;;;;65.47;25.42;;;-0.90;99.90;;;;;;6217803;23;20016;-78
2024/01/30 07:57:39;;;;;;;57.53;23.77;;;-0.70;99.90;;;;;;6220358;23;20547;-78
2024/01/30 08:00:08;;;;;;;58.88;24.52;;;-0.70;99.90;;;;;;6195690;23;20032;-78
2024/01/30 08:02:40;;;;;;;67.95;22.27;;;-0.70;99.90;;;;;;6198850;23;20521;-78
2024/01/30 08:05:16;;;;;;;59.00;24.58;;;-0.60;99.90;;;;;;6174585;23;20013;-80
2024/01/30 08:07:47;;;;;;;46.88;19.42;;;-0.50;99.90;;;;;;6181086;23;19997;-80
2024/01/30 08:10:44;;;;;;;45.60;18.63;;;-0.40;99.90;;;;;;6158210;23;19998;-81
2024/01/30 08:13:14;;;;;;;37.53;15.60;;;-0.20;99.90;;;;;;6158019;23;20021;-81
2024/01/30 08:15:47;;;;;;;39.58;17.08;;;-0.30;99.90;;;;;;6158444;23;20001;-82
2024/01/30 08:35:36;;;;;;;48.92;19.65;;;0.40;99.90;;;;;;6234751;22;20084;-79
2024/01/30 08:38:05;;;;;;;51.78;19.95;;;0.30;99.90;;;;;;6210807;23;20031;-80
2024/01/30 08:40:36;;;;;;;56.40;21.45;;;0.50;99.90;;;;;;6214341;23;20009;-79
2024/01/30 08:43:13;;;;;;;48.67;20.15;;;0.60;99.90;;;;;;6216821;23;19996;-80
2024/01/30 08:45:48;;;;;;;49.30;19.30;;;2.40;99.90;;;;;;6215932;23;20038;-80
2024/01/30 08:52:59;;;;;;;48.10;20.10;;;1.00;99.90;;;;;;6069957;23;20080;-80
2024/01/30 09:02:40;;;;;;;52.30;18.25;;;1.00;99.90;;;;;;6171487;22;20027;-78
2024/01/30 09:05:24;;;;;;;46.67;17.85;;;1.20;99.90;;;;;;6204695;23;20025;-79
2024/01/30 09:07:54;;;;;;;42.67;17.50;;;0.90;99.90;;;;;;6110864;23;20025;-78
2024/01/30 09:10:23;;;;;;;48.50;20.83;;;1.30;99.90;;;;;;6208034;23;20043;-80
2024/01/30 09:12:52;;;;;;;51.97;18.92;;;0.10;99.90;;;;;;6201683;23;20029;-79
2024/01/30 09:15:21;;;;;;;52.97;20.75;;;1.60;99.90;;;;;;6195116;23;20024;-76
2024/01/30 09:17:54;;;;;;;47.40;19.73;;;1.50;99.90;;;;;;6189627;23;20051;-77
2024/01/30 09:20:22;;;;;;;51.90;18.98;;;1.70;99.90;;;;;;6191466;23;20021;-76
2024/01/30 09:22:51;;;;;;;49.88;18.83;;;1.70;99.90;;;;;;6190525;23;20028;-77
2024/01/30 09:25:19;;;;;;;49.22;18.77;;;1.70;99.90;;;;;;6191589;23;20021;-76
2024/01/30 09:27:48;;;;;;;46.72;21.00;;;1.70;99.90;;;;;;6191066;23;20480;-77
2024/01/30 09:30:17;;;;;;;51.53;19.35;;;1.90;99.90;;;;;;6190926;23;20514;-75
2024/01/30 09:32:45;;;;;;;43.67;18.10;;;2.00;99.90;;;;;;6190805;23;20040;-76
2024/01/30 09:35:16;;;;;;;49.97;19.83;;;2.10;99.90;;;;;;6191549;23;20111;-76
2024/01/30 09:37:45;;;;;;;40.95;17.27;;;2.10;99.90;;;;;;6190978;23;20150;-75
2024/01/30 09:40:13;;;;;;;52.95;20.67;;;2.10;99.90;;;;;;6191341;23;20012;-76
2024/01/30 09:42:44;;;;;;;38.40;17.17;;;2.20;99.90;;;;;;6191663;23;20024;-76
2024/01/30 09:45:15;;;;;;;39.53;16.08;;;2.30;99.90;;;;;;6191643;23;20392;-76
2024/01/30 09:47:44;;;;;;;41.40;15.45;;;2.40;99.90;;;;;;6192969;23;20020;-76
2024/01/30 09:50:16;;;;;;;42.05;14.88;;;2.40;99.90;;;;;;6191733;23;20029;-77
2024/01/30 09:52:45;;;;;;;28.15;11.48;;;2.50;99.90;;;;;;6192452;23;20024;-76
2024/01/30 09:55:14;;;;;;;37.55;15.13;;;2.60;99.90;;;;;;6193172;23;20453;-76
2024/01/30 09:57:43;;;;;;;41.42;16.08;;;2.70;99.90;;;;;;6193002;23;20025;-76
2024/01/30 10:00:13;;;;;;;41.20;16.55;;;2.70;99.90;;;;;;6193588;23;20016;-76
2024/01/30 10:02:42;;;;;;;36.97;14.98;;;2.70;99.90;;;;;;6192294;23;20024;-76
2024/01/30 10:05:11;;;;;;;38.47;15.30;;;2.90;99.90;;;;;;6192175;23;20026;-76
2024/01/30 10:07:51;;;;;;;39.05;16.08;;;2.90;99.90;;;;;;6217825;23;20079;-76
2024/01/30 10:10:20;;;;;;;36.92;16.17;;;2.90;99.90;;;;;;6192127;23;20508;-76
2024/01/30 10:12:49;;;;;;;31.20;14.70;;;2.90;99.90;;;;;;6192637;23;20063;-76
2024/01/30 10:15:19;;;;;;;32.13;14.07;;;2.90;99.90;;;;;;6193432;23;20025;-77
2024/01/30 10:17:47;;;;;;;36.88;14.93;;;3.10;99.90;;;;;;6192350;23;20027;-76
2024/01/30 10:20:17;;;;;;;34.80;14.68;;;2.90;99.90;;;;;;6192240;23;20025;-76
2024/01/30 10:22:51;;;;;;;38.47;17.38;;;2.80;99.90;;;;;;6193606;23;20404;-76
2024/01/30 10:25:19;;;;;;;39.20;17.40;;;2.90;99.90;;;;;;6197952;23;20027;-78
2024/01/30 10:27:48;;;;;;;53.38;24.15;;;3.10;99.90;;;;;;6201824;23;20069;-78
2024/01/30 10:30:17;;;;;;;37.97;17.02;;;3.30;99.90;;;;;;6203496;23;20071;-78
2024/01/30 10:32:45;;;;;;;34.25;16.45;;;3.30;99.90;;;;;;6204395;23;20124;-78
2024/01/30 10:35:14;;;;;;;32.00;13.85;;;3.50;99.90;;;;;;6228611;23;20373;-78
2024/01/30 10:37:44;;;;;;;28.77;12.35;;;3.70;99.90;;;;;;6227669;23;20051;-78
2024/01/30 10:40:16;;;;;;;31.55;13.40;;;3.60;99.90;;;;;;6199256;23;20032;-78
2024/01/30 10:42:46;;;;;;;28.60;12.63;;;3.40;99.90;;;;;;6227767;23;20369;-78
2024/01/30 10:45:15;;;;;;;31.73;13.40;;;3.40;99.90;;;;;;6229636;23;20016;-78
2024/01/30 10:47:50;;;;;;;31.27;14.20;;;3.80;99.90;;;;;;6204558;23;20079;-79
2024/01/30 10:50:19;;;;;;;31.60;13.00;;;3.70;99.90;;;;;;6201989;23;20040;-78
2024/01/30 10:52:48;;;;;;;29.13;11.02;;;3.80;99.90;;;;;;6227780;23;20014;-78
2024/01/30 10:55:20;;;;;;;30.05;12.00;;;3.60;99.90;;;;;;6203335;23;20080;-78
2024/01/30 10:57:49;;;;;;;26.75;11.60;;;3.70;99.90;;;;;;6201107;23;20044;-78
2024/01/30 11:00:22;;;;;;;27.73;12.77;;;3.60;99.90;;;;;;6225576;23;20017;-78
2024/01/30 11:02:50;;;;;;;31.90;12.52;;;3.40;99.90;;;;;;6198096;23;20028;-77
2024/01/30 11:05:26;;;;;;;28.48;12.80;;;3.70;99.90;;;;;;6202458;23;20024;-78
2024/01/30 11:08:10;;;;;;;29.42;11.93;;;3.90;99.90;;;;;;6201411;23;20017;-78
2024/01/30 11:10:47;;;;;;;40.20;14.23;;;4.20;99.90;;;;;;6200817;23;20017;-78
2024/01/30 11:13:16;;;;;;;24.98;12.05;;;4.20;99.90;;;;;;6201753;23;20387;-78
2024/01/30 11:15:48;;;;;;;26.75;12.20;;;3.20;99.90;;;;;;6204256;23;20017;-78
2024/01/30 11:18:25;;;;;;;25.40;11.43;;;4.20;99.90;;;;;;6208104;23;20032;-78
2024/01/30 11:20:56;;;;;;;24.88;10.98;;;4.20;99.90;;;;;;6201938;23;20021;-78
2024/01/30 11:23:26;;;;;;;25.20;11.57;;;4.30;99.90;;;;;;6205092;23;20408;-79
2024/01/30 11:25:58;;;;;;;23.38;11.00;;;4.40;99.90;;;;;;6203420;23;20027;-79
2024/01/30 11:28:34;;;;;;;29.92;13.52;;;4.40;99.90;;;;;;6228407;23;20410;-79
2024/01/30 11:31:07;;;;;;;28.60;12.38;;;4.40;99.90;;;;;;6231393;23;20015;-78
2024/01/30 11:33:36;;;;;;;28.80;10.30;;;4.40;99.90;;;;;;6202113;23;20025;-78
2024/01/30 11:36:07;;;;;;;23.23;10.45;;;4.50;99.90;;;;;;6206046;23;20008;-79
2024/01/30 11:38:35;;;;;;;23.23;10.90;;;4.70;99.90;;;;;;6202116;23;20028;-78
2024/01/30 11:41:05;;;;;;;23.60;10.35;;;4.60;99.90;;;;;;6228315;23;20461;-79
2024/01/30 11:43:34;;;;;;;23.23;11.23;;;4.60;99.90;;;;;;6199594;23;20032;-78
2024/01/30 11:46:03;;;;;;;25.05;11.27;;;4.50;99.90;;;;;;6202251;23;20051;-78
2024/01/30 11:48:32;;;;;;;23.02;11.18;;;4.50;99.90;;;;;;6227917;23;20029;-78
2024/01/30 11:51:01;;;;;;;21.85;9.68;;;4.50;99.90;;;;;;6201673;23;20020;-77
2024/01/30 11:53:29;;;;;;;17.10;8.63;;;4.60;99.90;;;;;;6201311;23;20100;-78
2024/01/30 11:55:58;;;;;;;20.70;9.23;;;4.60;99.90;;;;;;6197004;23;20028;-78
2024/01/30 11:58:28;;;;;;;22.33;9.57;;;4.80;99.90;;;;;;6196327;23;20103;-78
2024/01/30 12:00:57;;;;;;;20.08;9.23;;;4.80;99.90;;;;;;6196250;23;20012;-78
2024/01/30 12:03:26;;;;;;;18.58;7.47;;;4.70;99.90;;;;;;6196075;23;20028;-78
2024/01/30 12:05:58;;;;;;;17.23;7.07;;;4.80;99.90;;;;;;6199322;23;20032;-76
2024/01/30 12:08:28;;;;;;;15.27;7.10;;;4.90;99.90;;;;;;6198135;23;20099;-78
2024/01/30 12:10:58;;;;;;;15.85;8.13;;;4.90;99.90;;;;;;6196394;23;20108;-78
2024/01/30 12:13:29;;;;;;;14.98;6.75;;;5.00;99.90;;;;;;6196207;23;20029;-77
2024/01/30 12:16:01;;;;;;;16.67;6.72;;;5.00;99.90;;;;;;6221680;23;20480;-77
2024/01/30 12:18:30;;;;;;;14.85;6.68;;;5.10;99.90;;;;;;6196588;23;20062;-79
2024/01/30 12:21:00;;;;;;;15.70;6.38;;;5.00;99.90;;;;;;6196291;23;20128;-77
2024/01/30 12:23:29;;;;;;;14.48;6.45;;;5.00;99.90;;;;;;6221527;23;20020;-77
2024/01/30 12:25:59;;;;;;;14.10;5.72;;;5.10;99.90;;;;;;6193722;23;20025;-77
2024/01/30 12:28:28;;;;;;;16.95;6.93;;;5.20;99.90;;;;;;6192953;23;20055;-77
2024/01/30 12:30:58;;;;;;;19.13;8.00;;;5.10;99.90;;;;;;6194958;23;20047;-78
2024/01/30 12:33:28;;;;;;;18.23;7.35;;;5.10;99.90;;;;;;6221355;23;20016;-77
2024/01/30 12:35:57;;;;;;;14.73;6.78;;;5.10;99.90;;;;;;6193192;23;20028;-78
2024/01/30 12:38:31;;;;;;;15.20;6.63;;;5.00;99.90;;;;;;6192618;23;20048;-77
2024/01/30 12:40:59;;;;;;;15.45;6.30;;;5.00;99.90;;;;;;6191973;23;20808;-77
2024/01/30 12:43:31;;;;;;;14.57;5.55;;;5.20;99.90;;;;;;6192304;23;20422;-77
2024/01/30 12:46:06;;;;;;;12.43;5.32;;;5.10;99.90;;;;;;6193262;23;20025;-76
2024/01/30 12:48:35;;;;;;;12.77;6.25;;;5.10;99.90;;;;;;6192003;23;20024;-76
2024/01/30 12:51:04;;;;;;;10.95;4.57;;;5.10;99.90;;;;;;6191368;23;20362;-76
2024/01/30 12:53:32;;;;;;;11.70;5.15;;;5.10;99.90;;;;;;6191123;23;20438;-75
2024/01/30 12:56:01;;;;;;;12.52;6.20;;;5.10;99.90;;;;;;6192103;23;20016;-76
2024/01/30 12:58:31;;;;;;;12.82;6.18;;;5.10;99.90;;;;;;6220568;23;20138;-74
2024/01/30 13:00:59;;;;;;;11.38;5.45;;;5.20;99.90;;;;;;6194159;23;20442;-76
2024/01/30 13:03:28;;;;;;;12.23;4.93;;;5.10;99.90;;;;;;6193413;23;20026;-76
2024/01/30 13:05:56;;;;;;;14.60;6.22;;;5.10;99.90;;;;;;6220673;23;20028;-76
2024/01/30 13:08:25;;;;;;;12.00;5.70;;;5.10;99.90;;;;;;6220508;23;20024;-76
2024/01/30 13:10:53;;;;;;;9.82;4.93;;;5.10;99.90;;;;;;6192524;23;20016;-76
2024/01/30 13:13:22;;;;;;;11.90;5.45;;;5.10;99.90;;;;;;6192969;23;20404;-77
2024/01/30 13:15:52;;;;;;;11.23;5.38;;;5.10;99.90;;;;;;6193165;23;20434;-76
2024/01/30 13:18:20;;;;;;;10.07;5.15;;;5.10;99.90;;;;;;6192664;23;20016;-75
2024/01/30 13:20:49;;;;;;;10.93;4.65;;;5.10;99.90;;;;;;6219808;23;20046;-76
2024/01/30 13:23:17;;;;;;;10.65;4.93;;;5.10;99.90;;;;;;6193992;23;20027;-76